sensor_id;sensor_type;location;lat;lon;timestamp;P1;durP1;ratioP1;P2;durP2;ratioP2
55987;SDS011;67216;50.930;4.514;2023-01-24T00:00:38;60.00;;;40.65;;
55987;SDS011;67216;50.930;4.514;2023-01-24T00:03:04;62.75;;;41.78;;
55987;SDS011;67216;50.930;4.514;2023-01-24T00:05:32;62.80;;;41.25;;
55987;SDS011;67216;50.930;4.514;2023-01-24T00:07:58;61.67;;;41.10;;
55987;SDS011;67216;50.930;4.514;2023-01-24T00:10:24;64.95;;;41.83;;
55987;SDS011;67216;50.930;4.514;2023-01-24T00:12:50;67.53;;;43.08;;
55987;SDS011;67216;50.930;4.514;2023-01-24T00:15:16;63.20;;;41.22;;
55987;SDS011;67216;50.930;4.514;2023-01-24T00:17:41;62.45;;;41.40;;
55987;SDS011;67216;50.930;4.514;2023-01-24T00:20:07;61.30;;;40.40;;
55987;SDS011;67216;50.930;4.514;2023-01-24T00:22:35;63.80;;;41.70;;
55987;SDS011;67216;50.930;4.514;2023-01-24T00:25:00;62.88;;;41.55;;
55987;SDS011;67216;50.930;4.514;2023-01-24T00:27:26;59.58;;;40.38;;
55987;SDS011;67216;50.930;4.514;2023-01-24T00:29:52;64.65;;;41.47;;
55987;SDS011;67216;50.930;4.514;2023-01-24T00:32:17;66.00;;;43.13;;
55987;SDS011;67216;50.930;4.514;2023-01-24T00:34:43;64.72;;;43.72;;
55987;SDS011;67216;50.930;4.514;2023-01-24T00:37:11;63.13;;;41.15;;
55987;SDS011;67216;50.930;4.514;2023-01-24T00:39:37;68.03;;;44.03;;
55987;SDS011;67216;50.930;4.514;2023-01-24T00:42:03;65.43;;;42.00;;
55987;SDS011;67216;50.930;4.514;2023-01-24T00:44:29;64.70;;;42.85;;
55987;SDS011;67216;50.930;4.514;2023-01-24T00:46:55;60.90;;;40.47;;
55987;SDS011;67216;50.930;4.514;2023-01-24T00:49:20;61.40;;;41.67;;
55987;SDS011;67216;50.930;4.514;2023-01-24T00:51:46;63.00;;;42.22;;
55987;SDS011;67216;50.930;4.514;2023-01-24T00:54:12;62.60;;;40.47;;
55987;SDS011;67216;50.930;4.514;2023-01-24T00:56:37;64.38;;;41.97;;
55987;SDS011;67216;50.930;4.514;2023-01-24T00:59:03;64.97;;;42.10;;
55987;SDS011;67216;50.930;4.514;2023-01-24T01:01:29;66.07;;;42.10;;
55987;SDS011;67216;50.930;4.514;2023-01-24T01:03:55;63.78;;;42.47;;
55987;SDS011;67216;50.930;4.514;2023-01-24T01:06:21;63.22;;;41.17;;
55987;SDS011;67216;50.930;4.514;2023-01-24T01:08:48;61.88;;;40.50;;
55987;SDS011;67216;50.930;4.514;2023-01-24T01:11:14;61.45;;;39.38;;
55987;SDS011;67216;50.930;4.514;2023-01-24T01:13:40;61.90;;;41.35;;
55987;SDS011;67216;50.930;4.514;2023-01-24T01:22:08;61.53;;;40.22;;
55987;SDS011;67216;50.930;4.514;2023-01-24T01:24:35;63.00;;;40.55;;
55987;SDS011;67216;50.930;4.514;2023-01-24T01:27:01;57.95;;;39.95;;
55987;SDS011;67216;50.930;4.514;2023-01-24T01:29:27;57.83;;;38.40;;
55987;SDS011;67216;50.930;4.514;2023-01-24T01:31:53;55.13;;;36.33;;
55987;SDS011;67216;50.930;4.514;2023-01-24T01:34:18;53.38;;;36.72;;
55987;SDS011;67216;50.930;4.514;2023-01-24T01:36:47;51.15;;;35.20;;
55987;SDS011;67216;50.930;4.514;2023-01-24T01:39:12;50.78;;;33.85;;
55987;SDS011;67216;50.930;4.514;2023-01-24T01:41:38;55.35;;;36.65;;
55987;SDS011;67216;50.930;4.514;2023-01-24T01:47:00;46.22;;;32.28;;
55987;SDS011;67216;50.930;4.514;2023-01-24T01:49:26;50.40;;;34.25;;
55987;SDS011;67216;50.930;4.514;2023-01-24T01:52:04;50.25;;;34.67;;
55987;SDS011;67216;50.930;4.514;2023-01-24T01:54:33;49.13;;;33.72;;
55987;SDS011;67216;50.930;4.514;2023-01-24T01:59:40;51.58;;;35.22;;
55987;SDS011;67216;50.930;4.514;2023-01-24T02:02:12;52.08;;;33.83;;
55987;SDS011;67216;50.930;4.514;2023-01-24T02:04:39;48.42;;;34.13;;
55987;SDS011;67216;50.930;4.514;2023-01-24T02:07:20;44.67;;;31.20;;
55987;SDS011;67216;50.930;4.514;2023-01-24T02:09:50;45.40;;;31.75;;
55987;SDS011;67216;50.930;4.514;2023-01-24T02:12:27;50.05;;;34.22;;
55987;SDS011;67216;50.930;4.514;2023-01-24T02:14:57;50.92;;;34.20;;
55987;SDS011;67216;50.930;4.514;2023-01-24T02:17:45;50.30;;;33.63;;
55987;SDS011;67216;50.930;4.514;2023-01-24T02:27:47;49.45;;;32.83;;
55987;SDS011;67216;50.930;4.514;2023-01-24T02:30:14;47.70;;;32.50;;
55987;SDS011;67216;50.930;4.514;2023-01-24T02:32:40;51.65;;;33.97;;
55987;SDS011;67216;50.930;4.514;2023-01-24T02:35:06;50.38;;;31.70;;
55987;SDS011;67216;50.930;4.514;2023-01-24T02:37:32;47.97;;;32.75;;
55987;SDS011;67216;50.930;4.514;2023-01-24T02:40:08;48.25;;;33.08;;
55987;SDS011;67216;50.930;4.514;2023-01-24T02:42:38;47.75;;;32.50;;
55987;SDS011;67216;50.930;4.514;2023-01-24T02:45:12;47.90;;;32.95;;
55987;SDS011;67216;50.930;4.514;2023-01-24T02:47:48;47.92;;;33.35;;
55987;SDS011;67216;50.930;4.514;2023-01-24T02:50:16;46.85;;;31.40;;
55987;SDS011;67216;50.930;4.514;2023-01-24T02:52:44;48.03;;;33.72;;
55987;SDS011;67216;50.930;4.514;2023-01-24T02:55:29;48.45;;;33.15;;
55987;SDS011;67216;50.930;4.514;2023-01-24T02:57:55;46.45;;;32.80;;
55987;SDS011;67216;50.930;4.514;2023-01-24T03:00:30;52.30;;;33.38;;
55987;SDS011;67216;50.930;4.514;2023-01-24T03:02:58;50.65;;;33.83;;
55987;SDS011;67216;50.930;4.514;2023-01-24T03:05:24;51.05;;;33.33;;
55987;SDS011;67216;50.930;4.514;2023-01-24T03:07:49;50.95;;;35.25;;
55987;SDS011;67216;50.930;4.514;2023-01-24T03:10:16;48.47;;;33.22;;
55987;SDS011;67216;50.930;4.514;2023-01-24T03:12:43;49.63;;;33.38;;
55987;SDS011;67216;50.930;4.514;2023-01-24T03:15:28;48.60;;;32.38;;
55987;SDS011;67216;50.930;4.514;2023-01-24T03:18:12;47.95;;;31.23;;
55987;SDS011;67216;50.930;4.514;2023-01-24T03:20:57;44.17;;;30.83;;
55987;SDS011;67216;50.930;4.514;2023-01-24T03:23:41;47.30;;;32.50;;
55987;SDS011;67216;50.930;4.514;2023-01-24T03:26:25;44.35;;;31.48;;
55987;SDS011;67216;50.930;4.514;2023-01-24T03:29:10;47.85;;;31.77;;
55987;SDS011;67216;50.930;4.514;2023-01-24T03:31:54;43.92;;;29.88;;
55987;SDS011;67216;50.930;4.514;2023-01-24T03:34:39;44.35;;;30.05;;
55987;SDS011;67216;50.930;4.514;2023-01-24T03:37:14;46.67;;;30.40;;
55987;SDS011;67216;50.930;4.514;2023-01-24T03:39:41;45.45;;;30.27;;
55987;SDS011;67216;50.930;4.514;2023-01-24T03:42:24;44.35;;;30.02;;
55987;SDS011;67216;50.930;4.514;2023-01-24T03:44:51;42.03;;;29.67;;
55987;SDS011;67216;50.930;4.514;2023-01-24T03:47:19;44.83;;;30.30;;
55987;SDS011;67216;50.930;4.514;2023-01-24T03:49:46;47.25;;;30.73;;
55987;SDS011;67216;50.930;4.514;2023-01-24T03:52:30;47.53;;;31.60;;
55987;SDS011;67216;50.930;4.514;2023-01-24T03:54:56;41.28;;;29.90;;
55987;SDS011;67216;50.930;4.514;2023-01-24T03:57:26;47.15;;;30.67;;
55987;SDS011;67216;50.930;4.514;2023-01-24T03:59:52;45.38;;;30.35;;
55987;SDS011;67216;50.930;4.514;2023-01-24T04:02:18;44.92;;;30.00;;
55987;SDS011;67216;50.930;4.514;2023-01-24T04:04:45;45.35;;;30.08;;
55987;SDS011;67216;50.930;4.514;2023-01-24T04:07:30;42.80;;;29.40;;
55987;SDS011;67216;50.930;4.514;2023-01-24T04:09:56;46.05;;;31.60;;
55987;SDS011;67216;50.930;4.514;2023-01-24T04:12:25;44.20;;;30.60;;
55987;SDS011;67216;50.930;4.514;2023-01-24T04:14:51;41.88;;;29.05;;
55987;SDS011;67216;50.930;4.514;2023-01-24T04:17:17;41.13;;;28.15;;
55987;SDS011;67216;50.930;4.514;2023-01-24T04:19:43;46.05;;;30.42;;
55987;SDS011;67216;50.930;4.514;2023-01-24T04:22:08;42.83;;;28.98;;
55987;SDS011;67216;50.930;4.514;2023-01-24T04:24:34;44.22;;;28.40;;
55987;SDS011;67216;50.930;4.514;2023-01-24T04:27:00;42.50;;;28.50;;
55987;SDS011;67216;50.930;4.514;2023-01-24T04:29:25;43.42;;;29.48;;
55987;SDS011;67216;50.930;4.514;2023-01-24T04:31:51;41.78;;;28.45;;
55987;SDS011;67216;50.930;4.514;2023-01-24T04:34:17;42.88;;;29.60;;
55987;SDS011;67216;50.930;4.514;2023-01-24T04:36:43;44.85;;;30.90;;
55987;SDS011;67216;50.930;4.514;2023-01-24T04:39:08;42.80;;;29.92;;
55987;SDS011;67216;50.930;4.514;2023-01-24T04:41:34;43.40;;;29.80;;
55987;SDS011;67216;50.930;4.514;2023-01-24T04:44:00;41.72;;;29.48;;
55987;SDS011;67216;50.930;4.514;2023-01-24T04:46:27;41.05;;;29.13;;
55987;SDS011;67216;50.930;4.514;2023-01-24T04:48:53;42.13;;;29.20;;
55987;SDS011;67216;50.930;4.514;2023-01-24T04:51:19;43.83;;;30.45;;
55987;SDS011;67216;50.930;4.514;2023-01-24T04:53:44;42.35;;;29.27;;
55987;SDS011;67216;50.930;4.514;2023-01-24T04:56:10;45.65;;;30.55;;
55987;SDS011;67216;50.930;4.514;2023-01-24T04:58:36;45.35;;;31.95;;
55987;SDS011;67216;50.930;4.514;2023-01-24T05:01:03;47.20;;;31.70;;
55987;SDS011;67216;50.930;4.514;2023-01-24T05:03:29;46.00;;;32.58;;
55987;SDS011;67216;50.930;4.514;2023-01-24T05:05:54;45.10;;;31.95;;
55987;SDS011;67216;50.930;4.514;2023-01-24T05:08:21;48.92;;;32.45;;
55987;SDS011;67216;50.930;4.514;2023-01-24T05:10:47;47.72;;;33.83;;
55987;SDS011;67216;50.930;4.514;2023-01-24T05:13:13;48.50;;;32.63;;
55987;SDS011;67216;50.930;4.514;2023-01-24T05:15:45;51.78;;;34.05;;
55987;SDS011;67216;50.930;4.514;2023-01-24T05:18:16;45.70;;;31.85;;
55987;SDS011;67216;50.930;4.514;2023-01-24T05:20:42;44.58;;;32.30;;
55987;SDS011;67216;50.930;4.514;2023-01-24T05:23:08;47.83;;;33.30;;
55987;SDS011;67216;50.930;4.514;2023-01-24T05:25:34;46.15;;;31.88;;
55987;SDS011;67216;50.930;4.514;2023-01-24T05:28:00;49.70;;;33.80;;
55987;SDS011;67216;50.930;4.514;2023-01-24T05:30:25;49.78;;;33.72;;
55987;SDS011;67216;50.930;4.514;2023-01-24T05:32:54;48.78;;;33.85;;
55987;SDS011;67216;50.930;4.514;2023-01-24T05:35:21;47.08;;;33.22;;
55987;SDS011;67216;50.930;4.514;2023-01-24T05:37:50;49.55;;;33.70;;
55987;SDS011;67216;50.930;4.514;2023-01-24T05:40:16;49.72;;;35.03;;
55987;SDS011;67216;50.930;4.514;2023-01-24T05:42:42;47.85;;;32.50;;
55987;SDS011;67216;50.930;4.514;2023-01-24T05:45:09;49.10;;;34.83;;
55987;SDS011;67216;50.930;4.514;2023-01-24T05:47:35;52.13;;;35.88;;
55987;SDS011;67216;50.930;4.514;2023-01-24T05:50:02;54.47;;;36.83;;
55987;SDS011;67216;50.930;4.514;2023-01-24T05:52:28;53.60;;;35.03;;
55987;SDS011;67216;50.930;4.514;2023-01-24T05:54:53;55.33;;;36.00;;
55987;SDS011;67216;50.930;4.514;2023-01-24T05:57:19;53.78;;;36.03;;
55987;SDS011;67216;50.930;4.514;2023-01-24T05:59:45;53.45;;;36.67;;
55987;SDS011;67216;50.930;4.514;2023-01-24T06:02:10;56.22;;;38.05;;
55987;SDS011;67216;50.930;4.514;2023-01-24T06:04:36;52.55;;;35.38;;
55987;SDS011;67216;50.930;4.514;2023-01-24T06:07:02;61.72;;;39.10;;
55987;SDS011;67216;50.930;4.514;2023-01-24T06:09:27;56.67;;;37.45;;
55987;SDS011;67216;50.930;4.514;2023-01-24T06:11:54;59.75;;;38.55;;
55987;SDS011;67216;50.930;4.514;2023-01-24T06:14:20;61.13;;;40.60;;
55987;SDS011;67216;50.930;4.514;2023-01-24T06:16:46;59.58;;;40.60;;
55987;SDS011;67216;50.930;4.514;2023-01-24T06:19:13;61.55;;;39.85;;
55987;SDS011;67216;50.930;4.514;2023-01-24T06:26:54;63.80;;;40.53;;
55987;SDS011;67216;50.930;4.514;2023-01-24T06:29:22;68.30;;;41.25;;
55987;SDS011;67216;50.930;4.514;2023-01-24T06:34:42;61.50;;;39.15;;
55987;SDS011;67216;50.930;4.514;2023-01-24T06:39:37;66.93;;;40.80;;
55987;SDS011;67216;50.930;4.514;2023-01-24T06:42:04;63.63;;;42.00;;
55987;SDS011;67216;50.930;4.514;2023-01-24T06:44:30;67.72;;;42.85;;
55987;SDS011;67216;50.930;4.514;2023-01-24T06:46:57;62.65;;;40.17;;
55987;SDS011;67216;50.930;4.514;2023-01-24T06:49:24;66.45;;;42.20;;
55987;SDS011;67216;50.930;4.514;2023-01-24T06:51:57;65.20;;;42.97;;
55987;SDS011;67216;50.930;4.514;2023-01-24T06:54:22;67.85;;;42.97;;
55987;SDS011;67216;50.930;4.514;2023-01-24T06:56:48;67.47;;;42.80;;
55987;SDS011;67216;50.930;4.514;2023-01-24T06:59:14;65.40;;;42.70;;
55987;SDS011;67216;50.930;4.514;2023-01-24T07:01:39;67.50;;;42.58;;
55987;SDS011;67216;50.930;4.514;2023-01-24T07:04:05;66.78;;;41.80;;
55987;SDS011;67216;50.930;4.514;2023-01-24T07:06:30;70.47;;;44.28;;
55987;SDS011;67216;50.930;4.514;2023-01-24T07:08:57;66.18;;;43.25;;
55987;SDS011;67216;50.930;4.514;2023-01-24T07:11:24;69.35;;;44.53;;
55987;SDS011;67216;50.930;4.514;2023-01-24T07:13:51;68.13;;;44.42;;
55987;SDS011;67216;50.930;4.514;2023-01-24T07:16:17;66.40;;;42.53;;
55987;SDS011;67216;50.930;4.514;2023-01-24T07:18:43;69.40;;;44.83;;
55987;SDS011;67216;50.930;4.514;2023-01-24T07:21:09;68.55;;;43.70;;
55987;SDS011;67216;50.930;4.514;2023-01-24T07:23:35;73.43;;;45.85;;
55987;SDS011;67216;50.930;4.514;2023-01-24T07:26:04;64.50;;;44.80;;
55987;SDS011;67216;50.930;4.514;2023-01-24T07:28:34;69.07;;;45.35;;
55987;SDS011;67216;50.930;4.514;2023-01-24T07:30:59;69.22;;;44.90;;
55987;SDS011;67216;50.930;4.514;2023-01-24T07:33:27;77.40;;;48.05;;
55987;SDS011;67216;50.930;4.514;2023-01-24T07:35:54;71.20;;;46.03;;
55987;SDS011;67216;50.930;4.514;2023-01-24T07:38:19;73.22;;;46.47;;
55987;SDS011;67216;50.930;4.514;2023-01-24T07:40:46;70.35;;;46.65;;
55987;SDS011;67216;50.930;4.514;2023-01-24T07:43:12;69.32;;;44.15;;
55987;SDS011;67216;50.930;4.514;2023-01-24T07:45:38;74.53;;;47.67;;
55987;SDS011;67216;50.930;4.514;2023-01-24T07:48:04;70.50;;;45.22;;
55987;SDS011;67216;50.930;4.514;2023-01-24T07:50:33;67.57;;;44.38;;
55987;SDS011;67216;50.930;4.514;2023-01-24T07:52:59;73.00;;;47.10;;
55987;SDS011;67216;50.930;4.514;2023-01-24T07:55:25;72.68;;;47.15;;
55987;SDS011;67216;50.930;4.514;2023-01-24T07:57:51;67.88;;;44.35;;
55987;SDS011;67216;50.930;4.514;2023-01-24T08:00:21;67.25;;;44.25;;
55987;SDS011;67216;50.930;4.514;2023-01-24T08:02:48;66.05;;;43.88;;
55987;SDS011;67216;50.930;4.514;2023-01-24T08:05:14;67.03;;;43.58;;
55987;SDS011;67216;50.930;4.514;2023-01-24T08:07:40;72.00;;;44.92;;
55987;SDS011;67216;50.930;4.514;2023-01-24T08:10:06;62.33;;;42.75;;
55987;SDS011;67216;50.930;4.514;2023-01-24T08:12:32;63.15;;;43.33;;
55987;SDS011;67216;50.930;4.514;2023-01-24T08:14:59;67.47;;;45.35;;
55987;SDS011;67216;50.930;4.514;2023-01-24T08:17:25;66.50;;;44.88;;
55987;SDS011;67216;50.930;4.514;2023-01-24T08:19:52;70.75;;;44.90;;
55987;SDS011;67216;50.930;4.514;2023-01-24T08:22:18;71.57;;;45.85;;
55987;SDS011;67216;50.930;4.514;2023-01-24T08:24:43;69.80;;;47.13;;
55987;SDS011;67216;50.930;4.514;2023-01-24T08:27:10;70.28;;;46.50;;
55987;SDS011;67216;50.930;4.514;2023-01-24T08:29:38;69.15;;;44.78;;
55987;SDS011;67216;50.930;4.514;2023-01-24T08:32:04;65.78;;;43.78;;
55987;SDS011;67216;50.930;4.514;2023-01-24T08:34:30;72.15;;;46.38;;
55987;SDS011;67216;50.930;4.514;2023-01-24T08:36:55;66.53;;;44.55;;
55987;SDS011;67216;50.930;4.514;2023-01-24T08:39:21;70.55;;;47.17;;
55987;SDS011;67216;50.930;4.514;2023-01-24T08:41:47;66.15;;;44.75;;
55987;SDS011;67216;50.930;4.514;2023-01-24T08:44:13;71.43;;;47.20;;
55987;SDS011;67216;50.930;4.514;2023-01-24T08:46:40;69.22;;;45.70;;
55987;SDS011;67216;50.930;4.514;2023-01-24T08:49:05;69.90;;;45.95;;
55987;SDS011;67216;50.930;4.514;2023-01-24T08:51:31;67.95;;;44.97;;
55987;SDS011;67216;50.930;4.514;2023-01-24T08:53:59;66.25;;;43.45;;
55987;SDS011;67216;50.930;4.514;2023-01-24T08:56:26;60.15;;;41.80;;
55987;SDS011;67216;50.930;4.514;2023-01-24T08:59:01;64.00;;;41.22;;
55987;SDS011;67216;50.930;4.514;2023-01-24T09:01:26;64.68;;;40.33;;
55987;SDS011;67216;50.930;4.514;2023-01-24T09:03:53;52.97;;;37.13;;
55987;SDS011;67216;50.930;4.514;2023-01-24T09:06:21;50.75;;;36.95;;
55987;SDS011;67216;50.930;4.514;2023-01-24T09:08:47;53.85;;;37.03;;
55987;SDS011;67216;50.930;4.514;2023-01-24T09:11:16;47.28;;;33.00;;
55987;SDS011;67216;50.930;4.514;2023-01-24T09:13:43;50.13;;;34.35;;
55987;SDS011;67216;50.930;4.514;2023-01-24T09:16:09;46.05;;;31.75;;
55987;SDS011;67216;50.930;4.514;2023-01-24T09:18:34;46.67;;;34.92;;
55987;SDS011;67216;50.930;4.514;2023-01-24T09:21:01;49.50;;;34.97;;
55987;SDS011;67216;50.930;4.514;2023-01-24T09:23:29;50.58;;;35.35;;
55987;SDS011;67216;50.930;4.514;2023-01-24T09:25:56;47.30;;;34.55;;
55987;SDS011;67216;50.930;4.514;2023-01-24T09:28:21;52.38;;;36.97;;
55987;SDS011;67216;50.930;4.514;2023-01-24T09:30:47;52.83;;;37.33;;
55987;SDS011;67216;50.930;4.514;2023-01-24T09:33:14;59.00;;;38.90;;
55987;SDS011;67216;50.930;4.514;2023-01-24T09:35:42;52.75;;;37.22;;
55987;SDS011;67216;50.930;4.514;2023-01-24T09:38:17;56.28;;;38.28;;
55987;SDS011;67216;50.930;4.514;2023-01-24T09:40:49;53.72;;;37.33;;
55987;SDS011;67216;50.930;4.514;2023-01-24T09:46:11;57.75;;;38.30;;
55987;SDS011;67216;50.930;4.514;2023-01-24T09:49:13;54.97;;;37.67;;
55987;SDS011;67216;50.930;4.514;2023-01-24T09:51:44;61.17;;;42.97;;
55987;SDS011;67216;50.930;4.514;2023-01-24T09:57:05;61.63;;;42.10;;
55987;SDS011;67216;50.930;4.514;2023-01-24T09:59:45;63.20;;;41.85;;
55987;SDS011;67216;50.930;4.514;2023-01-24T10:02:18;61.55;;;44.03;;
55987;SDS011;67216;50.930;4.514;2023-01-24T10:04:46;59.88;;;42.17;;
55987;SDS011;67216;50.930;4.514;2023-01-24T10:10:05;61.93;;;42.57;;
55987;SDS011;67216;50.930;4.514;2023-01-24T10:12:43;59.40;;;41.35;;
55987;SDS011;67216;50.930;4.514;2023-01-24T10:18:41;57.10;;;39.15;;
55987;SDS011;67216;50.930;4.514;2023-01-24T10:23:57;50.75;;;36.20;;
55987;SDS011;67216;50.930;4.514;2023-01-24T10:29:21;47.38;;;32.33;;
55987;SDS011;67216;50.930;4.514;2023-01-24T10:31:54;48.78;;;36.03;;
55987;SDS011;67216;50.930;4.514;2023-01-24T10:34:40;48.38;;;34.13;;
55987;SDS011;67216;50.930;4.514;2023-01-24T10:39:52;50.17;;;34.40;;
55987;SDS011;67216;50.930;4.514;2023-01-24T10:50:48;45.47;;;32.35;;
55987;SDS011;67216;50.930;4.514;2023-01-24T10:53:25;46.00;;;32.55;;
55987;SDS011;67216;50.930;4.514;2023-01-24T11:03:47;52.20;;;35.10;;
55987;SDS011;67216;50.930;4.514;2023-01-24T11:06:33;50.72;;;35.42;;
55987;SDS011;67216;50.930;4.514;2023-01-24T11:09:13;52.08;;;36.53;;
55987;SDS011;67216;50.930;4.514;2023-01-24T11:11:51;51.60;;;36.70;;
55987;SDS011;67216;50.930;4.514;2023-01-24T11:14:23;53.78;;;38.45;;
55987;SDS011;67216;50.930;4.514;2023-01-24T11:16:56;63.90;;;43.35;;
55987;SDS011;67216;50.930;4.514;2023-01-24T11:19:37;60.40;;;42.70;;
55987;SDS011;67216;50.930;4.514;2023-01-24T11:22:26;60.85;;;41.55;;
55987;SDS011;67216;50.930;4.514;2023-01-24T11:24:59;60.03;;;42.17;;
55987;SDS011;67216;50.930;4.514;2023-01-24T11:27:26;59.00;;;41.03;;
55987;SDS011;67216;50.930;4.514;2023-01-24T11:35:45;58.75;;;41.00;;
55987;SDS011;67216;50.930;4.514;2023-01-24T11:46:27;59.50;;;41.25;;
55987;SDS011;67216;50.930;4.514;2023-01-24T12:13:30;60.63;;;42.88;;
55987;SDS011;67216;50.930;4.514;2023-01-24T12:16:01;57.40;;;39.85;;
55987;SDS011;67216;50.930;4.514;2023-01-24T12:21:25;64.25;;;40.92;;
55987;SDS011;67216;50.930;4.514;2023-01-24T12:26:35;61.05;;;42.53;;
55987;SDS011;67216;50.930;4.514;2023-01-24T12:29:09;57.47;;;42.13;;
55987;SDS011;67216;50.930;4.514;2023-01-24T12:31:46;56.80;;;40.22;;
55987;SDS011;67216;50.930;4.514;2023-01-24T12:36:55;55.80;;;40.22;;
55987;SDS011;67216;50.930;4.514;2023-01-24T12:39:41;58.72;;;41.58;;
55987;SDS011;67216;50.930;4.514;2023-01-24T12:42:47;57.22;;;40.63;;
55987;SDS011;67216;50.930;4.514;2023-01-24T12:48:05;59.70;;;41.13;;
55987;SDS011;67216;50.930;4.514;2023-01-24T12:50:56;57.78;;;39.63;;
55987;SDS011;67216;50.930;4.514;2023-01-24T12:53:24;56.33;;;39.67;;
55987;SDS011;67216;50.930;4.514;2023-01-24T12:58:34;57.67;;;39.83;;
55987;SDS011;67216;50.930;4.514;2023-01-24T13:03:53;57.92;;;41.50;;
55987;SDS011;67216;50.930;4.514;2023-01-24T13:11:52;61.05;;;40.50;;
55987;SDS011;67216;50.930;4.514;2023-01-24T13:14:29;60.42;;;41.95;;
55987;SDS011;67216;50.930;4.514;2023-01-24T13:22:31;58.65;;;39.83;;
55987;SDS011;67216;50.930;4.514;2023-01-24T13:28:11;60.72;;;39.70;;
55987;SDS011;67216;50.930;4.514;2023-01-24T13:33:25;63.17;;;42.63;;
55987;SDS011;67216;50.930;4.514;2023-01-24T13:36:02;61.17;;;42.83;;
55987;SDS011;67216;50.930;4.514;2023-01-24T13:38:29;58.28;;;41.85;;
55987;SDS011;67216;50.930;4.514;2023-01-24T13:41:13;55.58;;;40.00;;
55987;SDS011;67216;50.930;4.514;2023-01-24T13:49:19;57.13;;;41.72;;
55987;SDS011;67216;50.930;4.514;2023-01-24T13:52:03;60.92;;;41.42;;
55987;SDS011;67216;50.930;4.514;2023-01-24T13:55:04;58.65;;;41.10;;
55987;SDS011;67216;50.930;4.514;2023-01-24T14:10:46;56.15;;;40.20;;
55987;SDS011;67216;50.930;4.514;2023-01-24T14:16:12;56.83;;;41.50;;
55987;SDS011;67216;50.930;4.514;2023-01-24T14:18:58;57.78;;;40.58;;
55987;SDS011;67216;50.930;4.514;2023-01-24T14:27:13;56.85;;;40.83;;
55987;SDS011;67216;50.930;4.514;2023-01-24T14:37:44;59.42;;;42.40;;
55987;SDS011;67216;50.930;4.514;2023-01-24T14:42:50;59.22;;;38.53;;
55987;SDS011;67216;50.930;4.514;2023-01-24T14:45:22;57.78;;;39.13;;
55987;SDS011;67216;50.930;4.514;2023-01-24T14:47:51;51.88;;;37.90;;
55987;SDS011;67216;50.930;4.514;2023-01-24T14:50:28;56.97;;;40.53;;
55987;SDS011;67216;50.930;4.514;2023-01-24T14:53:41;53.55;;;38.30;;
55987;SDS011;67216;50.930;4.514;2023-01-24T14:55:48;56.50;;;38.33;;
55987;SDS011;67216;50.930;4.514;2023-01-24T14:58:20;51.45;;;38.38;;
55987;SDS011;67216;50.930;4.514;2023-01-24T15:00:49;53.42;;;37.53;;
55987;SDS011;67216;50.930;4.514;2023-01-24T15:03:18;55.20;;;39.38;;
55987;SDS011;67216;50.930;4.514;2023-01-24T15:06:05;50.90;;;38.17;;
55987;SDS011;67216;50.930;4.514;2023-01-24T15:08:32;55.45;;;39.47;;
55987;SDS011;67216;50.930;4.514;2023-01-24T15:11:15;58.28;;;40.17;;
55987;SDS011;67216;50.930;4.514;2023-01-24T15:16:24;49.70;;;36.13;;
55987;SDS011;67216;50.930;4.514;2023-01-24T15:19:32;51.80;;;37.80;;
55987;SDS011;67216;50.930;4.514;2023-01-24T15:21:52;53.05;;;37.50;;
55987;SDS011;67216;50.930;4.514;2023-01-24T15:24:24;53.58;;;36.05;;
55987;SDS011;67216;50.930;4.514;2023-01-24T15:26:55;52.03;;;36.78;;
55987;SDS011;67216;50.930;4.514;2023-01-24T15:29:36;56.55;;;38.60;;
55987;SDS011;67216;50.930;4.514;2023-01-24T15:32:26;51.42;;;36.00;;
55987;SDS011;67216;50.930;4.514;2023-01-24T15:40:46;56.28;;;38.40;;
55987;SDS011;67216;50.930;4.514;2023-01-24T15:43:28;56.00;;;39.10;;
55987;SDS011;67216;50.930;4.514;2023-01-24T15:49:23;53.95;;;38.42;;
55987;SDS011;67216;50.930;4.514;2023-01-24T15:54:38;47.28;;;34.20;;
55987;SDS011;67216;50.930;4.514;2023-01-24T15:57:26;51.55;;;36.88;;
55987;SDS011;67216;50.930;4.514;2023-01-24T16:00:28;51.85;;;36.97;;
55987;SDS011;67216;50.930;4.514;2023-01-24T16:02:50;47.42;;;33.90;;
55987;SDS011;67216;50.930;4.514;2023-01-24T16:05:17;48.85;;;35.15;;
55987;SDS011;67216;50.930;4.514;2023-01-24T16:07:44;51.30;;;36.40;;
55987;SDS011;67216;50.930;4.514;2023-01-24T16:10:13;48.67;;;34.72;;
55987;SDS011;67216;50.930;4.514;2023-01-24T16:12:40;48.83;;;35.88;;
55987;SDS011;67216;50.930;4.514;2023-01-24T16:15:08;51.90;;;37.45;;
55987;SDS011;67216;50.930;4.514;2023-01-24T16:17:40;50.28;;;35.50;;
55987;SDS011;67216;50.930;4.514;2023-01-24T16:20:16;49.15;;;34.95;;
55987;SDS011;67216;50.930;4.514;2023-01-24T16:22:47;52.90;;;36.80;;
55987;SDS011;67216;50.930;4.514;2023-01-24T16:25:13;49.92;;;36.40;;
55987;SDS011;67216;50.930;4.514;2023-01-24T16:27:39;50.47;;;36.38;;
55987;SDS011;67216;50.930;4.514;2023-01-24T16:30:10;49.38;;;35.92;;
55987;SDS011;67216;50.930;4.514;2023-01-24T16:32:51;52.28;;;38.55;;
55987;SDS011;67216;50.930;4.514;2023-01-24T16:35:18;46.15;;;34.10;;
55987;SDS011;67216;50.930;4.514;2023-01-24T16:37:44;48.50;;;35.45;;
55987;SDS011;67216;50.930;4.514;2023-01-24T16:40:10;46.13;;;33.95;;
55987;SDS011;67216;50.930;4.514;2023-01-24T16:42:39;47.88;;;33.70;;
55987;SDS011;67216;50.930;4.514;2023-01-24T16:45:17;41.22;;;30.92;;
55987;SDS011;67216;50.930;4.514;2023-01-24T16:47:44;43.72;;;31.77;;
55987;SDS011;67216;50.930;4.514;2023-01-24T16:50:10;46.38;;;34.08;;
55987;SDS011;67216;50.930;4.514;2023-01-24T16:52:37;43.55;;;31.70;;
55987;SDS011;67216;50.930;4.514;2023-01-24T16:55:03;44.45;;;32.40;;
55987;SDS011;67216;50.930;4.514;2023-01-24T16:57:30;44.10;;;32.88;;
55987;SDS011;67216;50.930;4.514;2023-01-24T16:59:56;50.35;;;33.05;;
55987;SDS011;67216;50.930;4.514;2023-01-24T17:02:22;45.17;;;33.40;;
55987;SDS011;67216;50.930;4.514;2023-01-24T17:04:48;48.10;;;34.00;;
55987;SDS011;67216;50.930;4.514;2023-01-24T17:07:13;48.80;;;33.90;;
55987;SDS011;67216;50.930;4.514;2023-01-24T17:09:39;45.67;;;33.83;;
55987;SDS011;67216;50.930;4.514;2023-01-24T17:12:05;49.65;;;35.03;;
55987;SDS011;67216;50.930;4.514;2023-01-24T17:14:34;48.88;;;35.00;;
55987;SDS011;67216;50.930;4.514;2023-01-24T17:17:00;46.97;;;34.67;;
55987;SDS011;67216;50.930;4.514;2023-01-24T17:19:25;48.70;;;34.22;;
55987;SDS011;67216;50.930;4.514;2023-01-24T17:21:52;52.15;;;37.65;;
55987;SDS011;67216;50.930;4.514;2023-01-24T17:24:18;47.75;;;33.53;;
55987;SDS011;67216;50.930;4.514;2023-01-24T17:26:44;45.22;;;33.17;;
55987;SDS011;67216;50.930;4.514;2023-01-24T17:29:09;45.08;;;33.03;;
55987;SDS011;67216;50.930;4.514;2023-01-24T17:31:35;48.55;;;33.60;;
55987;SDS011;67216;50.930;4.514;2023-01-24T17:34:01;50.58;;;36.08;;
55987;SDS011;67216;50.930;4.514;2023-01-24T17:36:26;52.80;;;34.90;;
55987;SDS011;67216;50.930;4.514;2023-01-24T17:38:52;51.63;;;35.03;;
55987;SDS011;67216;50.930;4.514;2023-01-24T17:41:19;45.47;;;30.73;;
55987;SDS011;67216;50.930;4.514;2023-01-24T17:43:49;48.70;;;33.50;;
55987;SDS011;67216;50.930;4.514;2023-01-24T17:46:15;46.80;;;31.10;;